sensor_id;sensor_type;location;lat;lon;timestamp;pressure;altitude;pressure_sealevel;temperature;humidity
64841;BME280;51307;52.162;7.560;2023-05-19T00:00:04;102197.63;;;11.45;50.59
64841;BME280;51307;52.162;7.560;2023-05-19T00:02:31;102187.09;;;11.53;50.39
64841;BME280;51307;52.162;7.560;2023-05-19T00:04:59;102187.28;;;11.61;50.20
64841;BME280;51307;52.162;7.560;2023-05-19T00:07:30;102183.41;;;11.54;50.45
64841;BME280;51307;52.162;7.560;2023-05-19T00:09:56;102182.09;;;11.49;50.61
64841;BME280;51307;52.162;7.560;2023-05-19T00:12:22;102186.16;;;11.43;50.93
64841;BME280;51307;52.162;7.560;2023-05-19T00:14:48;102177.72;;;11.48;50.95
64841;BME280;51307;52.162;7.560;2023-05-19T00:17:13;102183.22;;;11.46;50.89
64841;BME280;51307;52.162;7.560;2023-05-19T00:19:41;102182.84;;;11.51;50.61
64841;BME280;51307;52.162;7.560;2023-05-19T00:22:09;102191.34;;;11.56;50.70
64841;BME280;51307;52.162;7.560;2023-05-19T00:24:35;102185.97;;;11.56;50.52
64841;BME280;51307;52.162;7.560;2023-05-19T00:27:00;102186.59;;;11.38;50.85
64841;BME280;51307;52.162;7.560;2023-05-19T00:29:26;102187.59;;;11.26;51.17
64841;BME280;51307;52.162;7.560;2023-05-19T00:31:51;102185.38;;;11.31;50.91
64841;BME280;51307;52.162;7.560;2023-05-19T00:34:17;102190.63;;;11.12;51.64
64841;BME280;51307;52.162;7.560;2023-05-19T00:36:43;102181.22;;;11.17;51.43
64841;BME280;51307;52.162;7.560;2023-05-19T00:39:09;102178.06;;;11.12;51.39
64841;BME280;51307;52.162;7.560;2023-05-19T00:41:34;102169.09;;;11.02;51.70
64841;BME280;51307;52.162;7.560;2023-05-19T00:44:00;102168.53;;;10.98;51.79
64841;BME280;51307;52.162;7.560;2023-05-19T00:46:25;102173.75;;;11.00;51.76
64841;BME280;51307;52.162;7.560;2023-05-19T00:48:51;102169.97;;;11.02;51.80
64841;BME280;51307;52.162;7.560;2023-05-19T00:51:17;102169.38;;;10.99;51.71
64841;BME280;51307;52.162;7.560;2023-05-19T00:53:44;102173.03;;;11.19;51.33
64841;BME280;51307;52.162;7.560;2023-05-19T00:56:13;102168.00;;;11.04;51.66
64841;BME280;51307;52.162;7.560;2023-05-19T00:58:40;102164.78;;;10.89;51.97
64841;BME280;51307;52.162;7.560;2023-05-19T01:01:06;102164.53;;;10.92;51.85
64841;BME280;51307;52.162;7.560;2023-05-19T01:03:34;102169.09;;;11.02;51.81
64841;BME280;51307;52.162;7.560;2023-05-19T01:06:01;102174.28;;;11.15;51.36
64841;BME280;51307;52.162;7.560;2023-05-19T01:08:31;102169.59;;;11.28;51.00
64841;BME280;51307;52.162;7.560;2023-05-19T01:10:57;102171.78;;;10.81;52.01
64841;BME280;51307;52.162;7.560;2023-05-19T01:13:23;102170.16;;;10.89;51.72
64841;BME280;51307;52.162;7.560;2023-05-19T01:18:53;102164.44;;;10.83;51.96
64841;BME280;51307;52.162;7.560;2023-05-19T01:31:59;102158.00;;;10.85;51.56
64841;BME280;51307;52.162;7.560;2023-05-19T01:34:26;102155.75;;;10.69;51.98
64841;BME280;51307;52.162;7.560;2023-05-19T01:36:54;102163.44;;;10.63;52.11
64841;BME280;51307;52.162;7.560;2023-05-19T01:39:21;102156.97;;;10.65;51.96
64841;BME280;51307;52.162;7.560;2023-05-19T01:41:48;102150.78;;;10.86;51.27
64841;BME280;51307;52.162;7.560;2023-05-19T01:44:14;102159.53;;;10.67;51.76
64841;BME280;51307;52.162;7.560;2023-05-19T01:46:40;102162.41;;;10.75;51.34
64841;BME280;51307;52.162;7.560;2023-05-19T01:49:06;102159.72;;;10.54;51.79
64841;BME280;51307;52.162;7.560;2023-05-19T01:51:32;102164.53;;;10.60;51.52
64841;BME280;51307;52.162;7.560;2023-05-19T01:53:57;102168.66;;;10.64;51.38
64841;BME280;51307;52.162;7.560;2023-05-19T01:56:37;102165.41;;;10.60;51.36
64841;BME280;51307;52.162;7.560;2023-05-19T01:59:19;102166.25;;;10.61;51.47
64841;BME280;51307;52.162;7.560;2023-05-19T02:01:52;102171.59;;;10.61;51.29
64841;BME280;51307;52.162;7.560;2023-05-19T02:07:53;102173.72;;;10.46;51.43
64841;BME280;51307;52.162;7.560;2023-05-19T02:10:26;102170.53;;;10.41;51.37
64841;BME280;51307;52.162;7.560;2023-05-19T02:13:00;102174.31;;;10.50;51.61
64841;BME280;51307;52.162;7.560;2023-05-19T02:15:32;102173.06;;;10.42;51.58
64841;BME280;51307;52.162;7.560;2023-05-19T02:18:00;102166.78;;;10.32;51.60
64841;BME280;51307;52.162;7.560;2023-05-19T02:20:29;102167.88;;;10.30;51.71
64841;BME280;51307;52.162;7.560;2023-05-19T02:22:55;102166.66;;;10.22;51.92
64841;BME280;51307;52.162;7.560;2023-05-19T02:25:21;102170.44;;;10.20;51.88
64841;BME280;51307;52.162;7.560;2023-05-19T02:27:47;102164.03;;;10.11;52.10
64841;BME280;51307;52.162;7.560;2023-05-19T02:30:13;102164.03;;;10.11;52.16
64841;BME280;51307;52.162;7.560;2023-05-19T02:32:39;102164.50;;;10.05;51.93
64841;BME280;51307;52.162;7.560;2023-05-19T02:35:05;102159.06;;;10.06;51.77
64841;BME280;51307;52.162;7.560;2023-05-19T02:37:30;102159.41;;;10.02;52.09
64841;BME280;51307;52.162;7.560;2023-05-19T02:39:57;102153.06;;;10.14;51.46
64841;BME280;51307;52.162;7.560;2023-05-19T02:42:22;102155.25;;;10.09;51.76
64841;BME280;51307;52.162;7.560;2023-05-19T02:44:48;102158.81;;;9.98;51.88
64841;BME280;51307;52.162;7.560;2023-05-19T02:47:13;102156.25;;;9.97;52.06
64841;BME280;51307;52.162;7.560;2023-05-19T02:49:39;102160.03;;;9.94;52.08
64841;BME280;51307;52.162;7.560;2023-05-19T02:52:05;102161.84;;;9.93;52.11
64841;BME280;51307;52.162;7.560;2023-05-19T02:54:32;102158.06;;;9.85;51.98
64841;BME280;51307;52.162;7.560;2023-05-19T02:56:59;102155.41;;;9.85;52.12
64841;BME280;51307;52.162;7.560;2023-05-19T02:59:25;102155.91;;;9.79;52.29
64841;BME280;51307;52.162;7.560;2023-05-19T03:01:55;102149.34;;;9.83;51.93
64841;BME280;51307;52.162;7.560;2023-05-19T03:04:21;102151.16;;;9.71;52.32
64841;BME280;51307;52.162;7.560;2023-05-19T03:06:46;102142.78;;;9.64;52.26
64841;BME280;51307;52.162;7.560;2023-05-19T03:09:12;102144.63;;;9.64;52.33
64841;BME280;51307;52.162;7.560;2023-05-19T03:11:38;102138.31;;;9.65;52.27
64841;BME280;51307;52.162;7.560;2023-05-19T03:14:04;102135.63;;;9.65;52.27
64841;BME280;51307;52.162;7.560;2023-05-19T03:16:29;102136.84;;;9.72;52.04
64841;BME280;51307;52.162;7.560;2023-05-19T03:18:55;102129.41;;;9.64;52.13
64841;BME280;51307;52.162;7.560;2023-05-19T03:21:21;102132.59;;;9.58;52.16
64841;BME280;51307;52.162;7.560;2023-05-19T03:23:47;102140.72;;;9.56;52.27
64841;BME280;51307;52.162;7.560;2023-05-19T03:26:12;102144.25;;;9.57;52.16
64841;BME280;51307;52.162;7.560;2023-05-19T03:28:37;102143.63;;;9.53;51.91
64841;BME280;51307;52.162;7.560;2023-05-19T03:31:03;102144.13;;;9.47;51.94
64841;BME280;51307;52.162;7.560;2023-05-19T03:33:29;102146.06;;;9.56;51.67
64841;BME280;51307;52.162;7.560;2023-05-19T03:35:57;102144.25;;;9.57;51.50
64841;BME280;51307;52.162;7.560;2023-05-19T03:38:23;102143.88;;;9.62;51.31
64841;BME280;51307;52.162;7.560;2023-05-19T03:40:49;102150.44;;;9.57;51.45
64841;BME280;51307;52.162;7.560;2023-05-19T03:43:14;102149.84;;;9.65;51.43
64841;BME280;51307;52.162;7.560;2023-05-19T03:45:40;102148.63;;;9.58;51.47
64841;BME280;51307;52.162;7.560;2023-05-19T03:48:06;102152.03;;;9.49;51.72
64841;BME280;51307;52.162;7.560;2023-05-19T03:50:31;102148.38;;;9.61;51.55
64841;BME280;51307;52.162;7.560;2023-05-19T03:52:58;102152.13;;;9.58;51.31
64841;BME280;51307;52.162;7.560;2023-05-19T03:55:24;102144.25;;;9.57;51.01
64841;BME280;51307;52.162;7.560;2023-05-19T03:57:50;102153.47;;;9.53;51.40
64841;BME280;51307;52.162;7.560;2023-05-19T04:00:17;102149.34;;;9.60;50.95
64841;BME280;51307;52.162;7.560;2023-05-19T04:02:42;102146.06;;;9.56;51.25
64841;BME280;51307;52.162;7.560;2023-05-19T04:05:09;102153.34;;;9.54;51.44
64841;BME280;51307;52.162;7.560;2023-05-19T04:07:34;102149.00;;;9.65;50.60
64841;BME280;51307;52.162;7.560;2023-05-19T04:10:03;102144.72;;;9.85;50.06
64841;BME280;51307;52.162;7.560;2023-05-19T04:12:28;102148.25;;;9.63;50.98
64841;BME280;51307;52.162;7.560;2023-05-19T04:14:54;102148.72;;;9.56;51.10
64841;BME280;51307;52.162;7.560;2023-05-19T04:17:19;102152.13;;;9.58;51.38
64841;BME280;51307;52.162;7.560;2023-05-19T04:19:47;102154.94;;;9.57;51.87
64841;BME280;51307;52.162;7.560;2023-05-19T04:22:13;102162.81;;;9.58;51.37
64841;BME280;51307;52.162;7.560;2023-05-19T04:24:38;102164.03;;;9.66;51.22
64841;BME280;51307;52.162;7.560;2023-05-19T04:27:04;102169.00;;;9.59;51.04
64841;BME280;51307;52.162;7.560;2023-05-19T04:29:36;102165.63;;;9.57;51.45
64841;BME280;51307;52.162;7.560;2023-05-19T04:32:02;102167.09;;;9.61;51.21
64841;BME280;51307;52.162;7.560;2023-05-19T04:34:33;102171.34;;;9.64;51.31
64841;BME280;51307;52.162;7.560;2023-05-19T04:36:59;102161.75;;;9.61;51.23
64841;BME280;51307;52.162;7.560;2023-05-19T04:39:25;102165.63;;;9.68;50.96
64841;BME280;51307;52.162;7.560;2023-05-19T04:41:50;102168.06;;;9.71;51.08
64841;BME280;51307;52.162;7.560;2023-05-19T04:44:18;102164.91;;;9.77;50.84
64841;BME280;51307;52.162;7.560;2023-05-19T04:46:44;102167.09;;;10.06;50.04
64841;BME280;51307;52.162;7.560;2023-05-19T04:49:10;102164.16;;;9.87;50.41
64841;BME280;51307;52.162;7.560;2023-05-19T04:51:37;102164.16;;;10.09;49.86
64841;BME280;51307;52.162;7.560;2023-05-19T04:54:06;102163.31;;;9.98;50.33
64841;BME280;51307;52.162;7.560;2023-05-19T04:56:32;102163.19;;;10.10;49.81
64841;BME280;51307;52.162;7.560;2023-05-19T04:58:57;102169.75;;;10.06;49.80
64841;BME280;51307;52.162;7.560;2023-05-19T05:01:23;102169.38;;;10.11;50.31
64841;BME280;51307;52.162;7.560;2023-05-19T05:03:51;102165.97;;;10.20;50.16
64841;BME280;51307;52.162;7.560;2023-05-19T05:06:20;102161.66;;;10.29;49.49
64841;BME280;51307;52.162;7.560;2023-05-19T05:08:46;102166.81;;;10.09;49.99
64841;BME280;51307;52.162;7.560;2023-05-19T05:11:11;102163.38;;;10.41;49.64
64841;BME280;51307;52.162;7.560;2023-05-19T05:13:37;102167.75;;;10.54;48.91
64841;BME280;51307;52.162;7.560;2023-05-19T05:16:03;102164.06;;;10.43;48.87
64841;BME280;51307;52.162;7.560;2023-05-19T05:18:32;102162.50;;;10.41;50.06
64841;BME280;51307;52.162;7.560;2023-05-19T05:20:57;102164.31;;;10.52;49.47
64841;BME280;51307;52.162;7.560;2023-05-19T05:23:23;102169.66;;;10.63;49.12
64841;BME280;51307;52.162;7.560;2023-05-19T05:25:49;102164.66;;;10.58;48.85
64841;BME280;51307;52.162;7.560;2023-05-19T05:28:15;102162.53;;;10.73;48.81
64841;BME280;51307;52.162;7.560;2023-05-19T05:30:40;102164.09;;;10.87;48.80
64841;BME280;51307;52.162;7.560;2023-05-19T05:33:07;102162.41;;;11.07;48.39
64841;BME280;51307;52.162;7.560;2023-05-19T05:35:33;102160.88;;;10.93;49.09
64841;BME280;51307;52.162;7.560;2023-05-19T05:37:58;102157.69;;;11.00;49.57
64841;BME280;51307;52.162;7.560;2023-05-19T05:40:25;102162.28;;;11.09;48.96
64841;BME280;51307;52.162;7.560;2023-05-19T05:42:51;102154.75;;;11.24;48.54
64841;BME280;51307;52.162;7.560;2023-05-19T05:45:21;102151.66;;;11.28;48.80
64841;BME280;51307;52.162;7.560;2023-05-19T05:47:46;102158.06;;;11.16;48.56
64841;BME280;51307;52.162;7.560;2023-05-19T05:50:12;102157.84;;;11.50;48.26
64841;BME280;51307;52.162;7.560;2023-05-19T05:52:40;102151.69;;;11.59;48.10
64841;BME280;51307;52.162;7.560;2023-05-19T05:55:06;102150.28;;;11.65;47.49
64841;BME280;51307;52.162;7.560;2023-05-19T05:57:32;102147.44;;;11.57;48.07
64841;BME280;51307;52.162;7.560;2023-05-19T06:00:00;102152.31;;;11.73;48.05
64841;BME280;51307;52.162;7.560;2023-05-19T06:02:26;102153.88;;;11.75;47.54
64841;BME280;51307;52.162;7.560;2023-05-19T06:04:52;102149.78;;;11.71;48.29
64841;BME280;51307;52.162;7.560;2023-05-19T06:07:18;102151.84;;;11.89;48.14
64841;BME280;51307;52.162;7.560;2023-05-19T06:09:44;102151.88;;;11.99;48.06
64841;BME280;51307;52.162;7.560;2023-05-19T06:12:09;102155.44;;;12.09;48.18
64841;BME280;51307;52.162;7.560;2023-05-19T06:14:36;102157.09;;;12.00;47.30
64841;BME280;51307;52.162;7.560;2023-05-19T06:17:01;102165.88;;;12.12;47.73
64841;BME280;51307;52.162;7.560;2023-05-19T06:19:27;102162.28;;;11.92;47.53
64841;BME280;51307;52.162;7.560;2023-05-19T06:21:52;102152.22;;;12.25;47.32
64841;BME280;51307;52.162;7.560;2023-05-19T06:24:17;102151.06;;;12.18;47.49
64841;BME280;51307;52.162;7.560;2023-05-19T06:26:43;102153.81;;;12.37;46.97
64841;BME280;51307;52.162;7.560;2023-05-19T06:29:09;102156.34;;;12.49;46.77
64841;BME280;51307;52.162;7.560;2023-05-19T06:31:34;102158.78;;;12.52;46.88
64841;BME280;51307;52.162;7.560;2023-05-19T06:33:59;102150.44;;;12.45;47.08
64841;BME280;51307;52.162;7.560;2023-05-19T06:36:25;102153.38;;;12.42;47.45
64841;BME280;51307;52.162;7.560;2023-05-19T06:38:50;102145.22;;;12.53;47.52
64841;BME280;51307;52.162;7.560;2023-05-19T06:41:16;102139.28;;;12.79;46.53
64841;BME280;51307;52.162;7.560;2023-05-19T06:43:42;102153.41;;;12.81;47.00
64841;BME280;51307;52.162;7.560;2023-05-19T06:46:07;102147.47;;;12.77;46.82
64841;BME280;51307;52.162;7.560;2023-05-19T06:48:33;102144.78;;;12.87;45.54
64841;BME280;51307;52.162;7.560;2023-05-19T06:50:58;102149.44;;;12.95;46.42
64841;BME280;51307;52.162;7.560;2023-05-19T06:53:24;102144.38;;;12.92;46.35
64841;BME280;51307;52.162;7.560;2023-05-19T06:55:49;102154.09;;;13.03;46.98
64841;BME280;51307;52.162;7.560;2023-05-19T06:58:15;102152.97;;;13.05;45.95
64841;BME280;51307;52.162;7.560;2023-05-19T07:00:41;102146.31;;;13.09;45.27
64841;BME280;51307;52.162;7.560;2023-05-19T07:03:07;102141.38;;;13.15;44.91
64841;BME280;51307;52.162;7.560;2023-05-19T07:05:33;102150.97;;;13.17;46.26
64841;BME280;51307;52.162;7.560;2023-05-19T07:07:58;102145.19;;;13.12;45.61
64841;BME280;51307;52.162;7.560;2023-05-19T07:10:24;102150.44;;;13.14;45.28
64841;BME280;51307;52.162;7.560;2023-05-19T07:12:49;102146.75;;;13.24;44.81
64841;BME280;51307;52.162;7.560;2023-05-19T07:15:15;102146.81;;;13.42;44.95
64841;BME280;51307;52.162;7.560;2023-05-19T07:17:40;102147.44;;;13.36;45.42
64841;BME280;51307;52.162;7.560;2023-05-19T07:20:06;102143.16;;;13.43;44.02
64841;BME280;51307;52.162;7.560;2023-05-19T07:22:34;102145.91;;;13.61;44.89
64841;BME280;51307;52.162;7.560;2023-05-19T07:25:00;102144.50;;;13.67;45.20
64841;BME280;51307;52.162;7.560;2023-05-19T07:27:26;102142.34;;;13.71;45.29
64841;BME280;51307;52.162;7.560;2023-05-19T07:29:52;102141.50;;;13.70;44.94
64841;BME280;51307;52.162;7.560;2023-05-19T07:32:17;102135.91;;;13.82;45.02
64841;BME280;51307;52.162;7.560;2023-05-19T07:34:43;102138.19;;;13.86;45.29
64841;BME280;51307;52.162;7.560;2023-05-19T07:37:08;102137.63;;;13.83;43.95
64841;BME280;51307;52.162;7.560;2023-05-19T07:39:34;102131.91;;;13.95;43.86
64841;BME280;51307;52.162;7.560;2023-05-19T07:42:00;102139.66;;;13.99;44.68
64841;BME280;51307;52.162;7.560;2023-05-19T07:44:26;102133.97;;;14.02;43.53
64841;BME280;51307;52.162;7.560;2023-05-19T07:46:53;102138.78;;;13.98;43.25
64841;BME280;51307;52.162;7.560;2023-05-19T07:49:18;102128.75;;;14.00;42.42
64841;BME280;51307;52.162;7.560;2023-05-19T07:51:44;102136.31;;;14.15;43.46
64841;BME280;51307;52.162;7.560;2023-05-19T07:54:10;102132.25;;;14.10;43.31
64841;BME280;51307;52.162;7.560;2023-05-19T07:56:35;102129.63;;;14.19;43.02
64841;BME280;51307;52.162;7.560;2023-05-19T07:59:02;102124.63;;;14.24;42.54
64841;BME280;51307;52.162;7.560;2023-05-19T08:01:29;102128.72;;;14.28;42.82
64841;BME280;51307;52.162;7.560;2023-05-19T08:03:54;102123.88;;;14.32;41.81
64841;BME280;51307;52.162;7.560;2023-05-19T08:06:20;102124.75;;;14.32;41.08
64841;BME280;51307;52.162;7.560;2023-05-19T08:08:45;102123.75;;;14.33;41.77
64841;BME280;51307;52.162;7.560;2023-05-19T08:11:11;102121.00;;;14.43;41.65
64841;BME280;51307;52.162;7.560;2023-05-19T08:13:37;102123.53;;;14.44;41.43
64841;BME280;51307;52.162;7.560;2023-05-19T08:16:02;102119.13;;;14.43;42.15
64841;BME280;51307;52.162;7.560;2023-05-19T08:18:28;102113.53;;;14.55;40.99
64841;BME280;51307;52.162;7.560;2023-05-19T08:20:53;102106.13;;;14.57;40.89
64841;BME280;51307;52.162;7.560;2023-05-19T08:23:19;102103.00;;;14.61;41.38
64841;BME280;51307;52.162;7.560;2023-05-19T08:25:46;102112.34;;;14.57;40.56
64841;BME280;51307;52.162;7.560;2023-05-19T08:28:12;102112.66;;;14.72;41.14
64841;BME280;51307;52.162;7.560;2023-05-19T08:30:38;102111.97;;;14.70;40.27
64841;BME280;51307;52.162;7.560;2023-05-19T08:33:03;102105.09;;;14.76;39.71
64841;BME280;51307;52.162;7.560;2023-05-19T08:35:29;102100.03;;;14.73;39.41
64841;BME280;51307;52.162;7.560;2023-05-19T08:37:54;102103.78;;;14.80;39.68
64841;BME280;51307;52.162;7.560;2023-05-19T08:40:21;102094.53;;;14.83;39.88
64841;BME280;51307;52.162;7.560;2023-05-19T08:42:48;102093.41;;;14.85;39.25
64841;BME280;51307;52.162;7.560;2023-05-19T08:45:14;102093.44;;;14.93;39.81
64841;BME280;51307;52.162;7.560;2023-05-19T08:47:40;102096.84;;;14.95;39.43
64841;BME280;51307;52.162;7.560;2023-05-19T08:50:07;102089.59;;;14.96;38.32
64841;BME280;51307;52.162;7.560;2023-05-19T08:53:32;102088.81;;;15.04;38.01
64841;BME280;51307;52.162;7.560;2023-05-19T08:56:11;102082.06;;;15.00;37.32
64841;BME280;51307;52.162;7.560;2023-05-19T08:58:39;102077.59;;;14.90;38.41
64841;BME280;51307;52.162;7.560;2023-05-19T09:01:07;102079.72;;;15.05;37.99
64841;BME280;51307;52.162;7.560;2023-05-19T09:03:34;102070.53;;;15.16;36.87
64841;BME280;51307;52.162;7.560;2023-05-19T09:06:06;102069.66;;;15.15;36.63
64841;BME280;51307;52.162;7.560;2023-05-19T09:08:42;102073.28;;;15.24;37.25
64841;BME280;51307;52.162;7.560;2023-05-19T09:11:08;102070.28;;;15.35;37.99
64841;BME280;51307;52.162;7.560;2023-05-19T09:13:34;102072.31;;;15.33;37.70
64841;BME280;51307;52.162;7.560;2023-05-19T09:16:01;102067.41;;;15.37;38.84
64841;BME280;51307;52.162;7.560;2023-05-19T09:18:28;102074.69;;;15.36;37.60
64841;BME280;51307;52.162;7.560;2023-05-19T09:20:59;102065.13;;;15.42;37.72
64841;BME280;51307;52.162;7.560;2023-05-19T09:23:31;102073.41;;;15.49;37.23
64841;BME280;51307;52.162;7.560;2023-05-19T09:26:01;102070.72;;;15.49;37.61
64841;BME280;51307;52.162;7.560;2023-05-19T09:28:34;102058.94;;;15.58;38.30
64841;BME280;51307;52.162;7.560;2023-05-19T09:33:34;102070.28;;;15.61;36.73
64841;BME280;51307;52.162;7.560;2023-05-19T09:36:00;102068.44;;;15.70;36.63
64841;BME280;51307;52.162;7.560;2023-05-19T09:38:27;102065.09;;;15.76;36.76
64841;BME280;51307;52.162;7.560;2023-05-19T09:40:55;102053.31;;;15.77;36.42
64841;BME280;51307;52.162;7.560;2023-05-19T09:43:22;102049.44;;;15.88;36.36
64841;BME280;51307;52.162;7.560;2023-05-19T09:46:06;102052.97;;;15.89;37.28
64841;BME280;51307;52.162;7.560;2023-05-19T09:48:35;102049.63;;;15.87;35.72
64841;BME280;51307;52.162;7.560;2023-05-19T09:51:01;102050.63;;;15.86;35.73
64841;BME280;51307;52.162;7.560;2023-05-19T09:53:29;102048.59;;;15.96;36.85
64841;BME280;51307;52.162;7.560;2023-05-19T09:55:57;102048.47;;;16.06;36.96
64841;BME280;51307;52.162;7.560;2023-05-19T09:58:23;102037.16;;;16.02;36.05
64841;BME280;51307;52.162;7.560;2023-05-19T10:00:49;102043.72;;;16.00;36.51
64841;BME280;51307;52.162;7.560;2023-05-19T10:03:16;102034.78;;;15.99;36.62
64841;BME280;51307;52.162;7.560;2023-05-19T10:05:43;102042.72;;;16.01;35.37
64841;BME280;51307;52.162;7.560;2023-05-19T10:08:10;102040.88;;;16.09;36.01
64841;BME280;51307;52.162;7.560;2023-05-19T10:10:37;102043.25;;;16.04;35.41
64841;BME280;51307;52.162;7.560;2023-05-19T10:13:04;102042.56;;;16.10;36.27
64841;BME280;51307;52.162;7.560;2023-05-19T10:15:29;102033.13;;;16.14;35.82
64841;BME280;51307;52.162;7.560;2023-05-19T10:17:55;102032.94;;;16.08;34.62
64841;BME280;51307;52.162;7.560;2023-05-19T10:20:21;102031.44;;;16.22;36.54
64841;BME280;51307;52.162;7.560;2023-05-19T10:22:47;102022.00;;;16.34;36.15
64841;BME280;51307;52.162;7.560;2023-05-19T10:25:13;102027.78;;;16.48;37.18
64841;BME280;51307;52.162;7.560;2023-05-19T10:27:53;102025.41;;;16.53;36.08
64841;BME280;51307;52.162;7.560;2023-05-19T10:30:27;102014.59;;;16.53;34.58
64841;BME280;51307;52.162;7.560;2023-05-19T10:32:55;102021.84;;;16.60;35.94
64841;BME280;51307;52.162;7.560;2023-05-19T10:40:38;102008.31;;;16.60;33.87
64841;BME280;51307;52.162;7.560;2023-05-19T10:43:33;101997.03;;;16.57;34.18
64841;BME280;51307;52.162;7.560;2023-05-19T10:46:03;101992.28;;;16.59;34.74
64841;BME280;51307;52.162;7.560;2023-05-19T10:48:32;101998.03;;;16.64;34.72
64841;BME280;51307;52.162;7.560;2023-05-19T10:51:02;101988.75;;;16.67;34.78
64841;BME280;51307;52.162;7.560;2023-05-19T10:53:32;101990.91;;;16.71;34.54
64841;BME280;51307;52.162;7.560;2023-05-19T10:56:00;101989.41;;;16.77;34.29
64841;BME280;51307;52.162;7.560;2023-05-19T10:58:49;101986.50;;;16.87;35.28
64841;BME280;51307;52.162;7.560;2023-05-19T11:01:16;101987.16;;;16.97;34.53
64841;BME280;51307;52.162;7.560;2023-05-19T11:03:53;101987.16;;;16.89;34.61
64841;BME280;51307;52.162;7.560;2023-05-19T11:08:45;101995.09;;;16.99;34.41
64841;BME280;51307;52.162;7.560;2023-05-19T11:11:16;101998.97;;;16.96;35.22
64841;BME280;51307;52.162;7.560;2023-05-19T11:13:53;101995.13;;;16.90;33.74
64841;BME280;51307;52.162;7.560;2023-05-19T11:18:54;101987.72;;;16.76;34.65
64841;BME280;51307;52.162;7.560;2023-05-19T11:21:20;101982.97;;;16.78;35.08
64841;BME280;51307;52.162;7.560;2023-05-19T11:23:45;101985.38;;;16.73;35.43
64841;BME280;51307;52.162;7.560;2023-05-19T11:26:11;101991.94;;;16.62;34.88
64841;BME280;51307;52.162;7.560;2023-05-19T11:28:37;101982.81;;;16.63;36.14
64841;BME280;51307;52.162;7.560;2023-05-19T11:31:04;101982.16;;;16.69;36.29
64841;BME280;51307;52.162;7.560;2023-05-19T11:33:32;101983.69;;;16.63;35.51
64841;BME280;51307;52.162;7.560;2023-05-19T11:35:58;101978.75;;;16.67;35.37
64841;BME280;51307;52.162;7.560;2023-05-19T11:38:25;101977.56;;;16.70;35.56
64841;BME280;51307;52.162;7.560;2023-05-19T11:40:54;101984.31;;;16.74;35.49
64841;BME280;51307;52.162;7.560;2023-05-19T11:43:24;101986.69;;;16.69;35.95
64841;BME280;51307;52.162;7.560;2023-05-19T11:45:50;101985.53;;;16.63;35.85
64841;BME280;51307;52.162;7.560;2023-05-19T11:48:15;101983.16;;;16.68;35.77
64841;BME280;51307;52.162;7.560;2023-05-19T11:50:42;101980.13;;;16.63;35.79
64841;BME280;51307;52.162;7.560;2023-05-19T11:53:12;101986.84;;;16.84;36.84
64841;BME280;51307;52.162;7.560;2023-05-19T11:55:44;101973.63;;;16.89;35.23
64841;BME280;51307;52.162;7.560;2023-05-19T11:58:10;101974.97;;;17.01;34.80
64841;BME280;51307;52.162;7.560;2023-05-19T12:00:38;101962.91;;;17.20;35.71
64841;BME280;51307;52.162;7.560;2023-05-19T12:03:05;101971.94;;;17.36;35.77
64841;BME280;51307;52.162;7.560;2023-05-19T12:05:31;101962.28;;;17.41;34.60
64841;BME280;51307;52.162;7.560;2023-05-19T12:07:57;101960.91;;;17.54;35.81
64841;BME280;51307;52.162;7.560;2023-05-19T12:10:26;101964.31;;;17.71;36.48
64841;BME280;51307;52.162;7.560;2023-05-19T12:12:53;101969.22;;;17.75;35.05
64841;BME280;51307;52.162;7.560;2023-05-19T12:15:23;101968.66;;;17.80;35.80
64841;BME280;51307;52.162;7.560;2023-05-19T12:18:00;101959.59;;;17.96;34.30
64841;BME280;51307;52.162;7.560;2023-05-19T12:20:27;101953.97;;;17.97;34.45
64841;BME280;51307;52.162;7.560;2023-05-19T12:22:55;101953.38;;;18.10;34.79
64841;BME280;51307;52.162;7.560;2023-05-19T12:25:22;101958.97;;;18.09;34.95
64841;BME280;51307;52.162;7.560;2023-05-19T12:27:49;101960.72;;;18.02;34.26
64841;BME280;51307;52.162;7.560;2023-05-19T12:30:17;101955.84;;;17.97;33.22
64841;BME280;51307;52.162;7.560;2023-05-19T12:32:49;101955.47;;;18.00;32.54
64841;BME280;51307;52.162;7.560;2023-05-19T12:35:16;101954.88;;;17.90;34.19
64841;BME280;51307;52.162;7.560;2023-05-19T12:37:41;101949.19;;;17.85;33.48
64841;BME280;51307;52.162;7.560;2023-05-19T12:40:07;101951.28;;;17.74;33.91
64841;BME280;51307;52.162;7.560;2023-05-19T12:42:33;101943.47;;;17.79;34.92
64841;BME280;51307;52.162;7.560;2023-05-19T12:45:02;101938.81;;;17.88;34.65
64841;BME280;51307;52.162;7.560;2023-05-19T12:47:30;101941.31;;;17.98;32.75
64841;BME280;51307;52.162;7.560;2023-05-19T12:52:30;101943.44;;;18.03;33.00
64841;BME280;51307;52.162;7.560;2023-05-19T12:55:07;101934.50;;;18.02;31.81
64841;BME280;51307;52.162;7.560;2023-05-19T12:57:39;101933.75;;;18.08;31.32
64841;BME280;51307;52.162;7.560;2023-05-19T13:02:58;101940.25;;;17.99;33.28
64841;BME280;51307;52.162;7.560;2023-05-19T13:05:26;101929.13;;;17.94;32.52
64841;BME280;51307;52.162;7.560;2023-05-19T13:07:59;101922.69;;;17.95;33.11
64841;BME280;51307;52.162;7.560;2023-05-19T13:10:27;101918.38;;;17.86;32.78
64841;BME280;51307;52.162;7.560;2023-05-19T13:12:54;101921.81;;;17.79;33.21
64841;BME280;51307;52.162;7.560;2023-05-19T13:15:25;101925.22;;;17.96;33.42
64841;BME280;51307;52.162;7.560;2023-05-19T13:17:52;101912.22;;;17.92;32.79
64841;BME280;51307;52.162;7.560;2023-05-19T13:20:19;101921.88;;;17.94;32.64
64841;BME280;51307;52.162;7.560;2023-05-19T13:22:46;101913.31;;;17.83;32.06
64841;BME280;51307;52.162;7.560;2023-05-19T13:25:11;101916.69;;;17.85;31.59
64841;BME280;51307;52.162;7.560;2023-05-19T13:27:37;101919.41;;;17.85;32.46